createdAt,value
2018-08-07T00:01:14.014Z,6.50
2018-08-07T00:02:14.302Z,6.60
2018-08-07T00:04:07.439Z,4.70
2018-08-07T00:05:07.040Z,5.30
2018-08-07T00:07:00.430Z,7.50
2018-08-07T00:08:00.692Z,6.30
2018-08-07T00:09:55.725Z,6.30
2018-08-07T00:10:54.181Z,5.20
2018-08-07T00:12:47.535Z,5.10
2018-08-07T00:13:47.192Z,4.90
2018-08-07T00:15:42.876Z,7.90
2018-08-07T00:16:40.668Z,5.40
2018-08-07T00:18:34.018Z,5.00
2018-08-07T00:19:33.743Z,4.80
2018-08-07T00:21:27.436Z,5.00
2018-08-07T00:22:27.438Z,4.80
2018-08-07T00:24:20.782Z,5.00
2018-08-07T00:25:20.462Z,4.70
2018-08-07T00:27:14.190Z,6.60
2018-08-07T00:28:14.221Z,6.90
2018-08-07T00:30:07.609Z,4.90
2018-08-07T00:31:07.630Z,5.80
2018-08-07T00:33:00.718Z,7.40
2018-08-07T00:34:00.943Z,4.80
2018-08-07T00:35:54.337Z,4.30
2018-08-07T00:36:54.357Z,4.60
2018-08-07T00:38:47.744Z,5.70
2018-08-07T00:39:47.717Z,6.10
2018-08-07T00:41:42.150Z,6.20
2018-08-07T00:42:41.067Z,6.00
2018-08-07T00:44:37.984Z,5.60
2018-08-07T00:45:37.920Z,4.90
2018-08-07T00:47:28.861Z,7.40
2018-08-07T00:48:28.520Z,6.40
2018-08-07T00:50:23.296Z,5.50
2018-08-07T00:51:21.898Z,5.10
2018-08-07T00:53:16.216Z,6.60
2018-08-07T00:54:16.141Z,7.60
2018-08-07T00:56:09.627Z,5.90
2018-08-07T00:57:09.523Z,5.50
2018-08-07T00:59:02.643Z,6.90
2018-08-07T01:00:02.563Z,5.80
2018-08-07T01:01:55.968Z,9.20
2018-08-07T01:02:55.595Z,10.90
2018-08-07T01:04:49.325Z,7.80
2018-08-07T01:05:49.307Z,6.80
2018-08-07T01:07:42.338Z,7.30
2018-08-07T01:08:42.334Z,8.20
2018-08-07T01:10:35.748Z,7.60
2018-08-07T01:11:35.296Z,8.40
2018-08-07T01:13:29.634Z,7.70
2018-08-07T01:14:28.724Z,8.30
2018-08-07T01:16:22.956Z,6.40
2018-08-07T01:17:22.088Z,5.10
2018-08-07T01:19:15.857Z,5.40
2018-08-07T01:20:15.486Z,5.20
2018-08-07T01:22:09.194Z,6.20
2018-08-07T01:23:09.218Z,6.20
2018-08-07T01:25:04.908Z,5.20
2018-08-07T01:26:02.237Z,6.10
2018-08-07T01:28:01.171Z,5.90
2018-08-07T01:29:00.432Z,5.80
2018-08-07T01:30:57.473Z,5.80
2018-08-07T01:31:56.396Z,5.50
2018-08-07T01:33:49.742Z,4.90
2018-08-07T01:34:49.408Z,5.10
2018-08-07T01:36:43.836Z,6.50
2018-08-07T01:37:43.094Z,5.90
2018-08-07T01:39:36.563Z,9.30
2018-08-07T01:40:36.494Z,6.50
2018-08-07T01:42:29.378Z,6.70
2018-08-07T01:43:29.342Z,5.60
2018-08-07T01:45:22.851Z,7.10
2018-08-07T01:46:22.459Z,7.30
2018-08-07T01:48:18.296Z,8.30
2018-08-07T01:49:15.895Z,5.10
2018-08-07T01:51:13.693Z,6.00
2018-08-07T01:52:11.552Z,5.40
2018-08-07T01:54:04.925Z,4.90
2018-08-07T01:55:04.577Z,6.00
2018-08-07T01:56:59.341Z,4.70
2018-08-07T01:57:58.298Z,5.50
2018-08-07T01:59:56.261Z,6.50
2018-08-07T02:00:56.195Z,5.00
2018-08-07T02:02:49.555Z,5.80
2018-08-07T02:03:49.230Z,5.90
2018-08-07T02:05:42.903Z,5.70
2018-08-07T02:06:42.587Z,6.50
2018-08-07T02:08:36.344Z,6.90
2018-08-07T02:10:49.739Z,5.60
2018-08-07T02:11:49.745Z,5.20
2018-08-07T02:13:42.700Z,5.90
2018-08-07T02:14:42.253Z,5.10
2018-08-07T02:16:36.033Z,7.10
2018-08-07T02:17:36.054Z,5.60
2018-08-07T02:19:29.466Z,4.70
2018-08-07T02:20:29.400Z,8.40
2018-08-07T02:22:22.839Z,5.70
2018-08-07T02:23:24.250Z,6.00
2018-08-07T02:25:17.239Z,5.70
2018-08-07T02:26:17.152Z,4.90
2018-08-07T02:28:10.544Z,7.40
2018-08-07T02:29:10.179Z,8.10
2018-08-07T02:31:03.913Z,5.60
2018-08-07T02:32:03.966Z,4.50
2018-08-07T02:34:00.499Z,5.60
2018-08-07T02:34:58.829Z,6.30
2018-08-07T02:36:56.399Z,4.70
2018-08-07T02:37:51.684Z,6.90
2018-08-07T02:39:45.055Z,6.60
2018-08-07T02:40:44.701Z,7.20
2018-08-07T02:42:38.453Z,4.80
2018-08-07T02:43:38.096Z,6.10
2018-08-07T02:45:31.467Z,7.20
2018-08-07T02:46:31.443Z,6.20
2018-08-07T02:48:27.872Z,7.00
2018-08-07T02:49:24.464Z,9.90
2018-08-07T02:51:20.822Z,5.20
2018-08-07T02:52:20.750Z,7.50
2018-08-07T02:54:14.109Z,6.10
2018-08-07T02:55:13.701Z,4.60
2018-08-07T02:57:08.499Z,5.50
2018-08-07T02:58:06.917Z,6.50
2018-08-07T03:00:07.060Z,5.90
2018-08-07T03:01:00.362Z,6.00
2018-08-07T03:02:54.697Z,4.40
2018-08-07T03:03:54.688Z,5.50
2018-08-07T03:05:47.785Z,6.40
2018-08-07T03:06:48.048Z,5.20
2018-08-07T03:08:43.509Z,4.50
2018-08-07T03:09:41.181Z,4.50
2018-08-07T03:11:42.799Z,5.30
2018-08-07T03:12:41.323Z,4.80
2018-08-07T03:14:34.690Z,6.50
2018-08-07T03:15:34.372Z,6.40
2018-08-07T03:17:32.205Z,4.80
2018-08-07T03:18:28.055Z,8.00
2018-08-07T03:20:25.492Z,5.30
2018-08-07T03:21:21.129Z,4.50
2018-08-07T03:23:14.845Z,8.50
2018-08-07T03:24:14.497Z,6.60
2018-08-07T03:26:07.847Z,5.00
2018-08-07T03:27:07.849Z,5.50
2018-08-07T03:29:01.745Z,5.00
2018-08-07T03:30:00.863Z,5.50
2018-08-07T03:31:54.651Z,4.70
2018-08-07T03:32:54.803Z,6.00
2018-08-07T03:34:51.065Z,6.00
2018-08-07T03:35:48.087Z,6.10
2018-08-07T03:37:42.563Z,6.50
2018-08-07T03:38:41.055Z,6.60
2018-08-07T03:40:35.357Z,5.00
2018-08-07T03:41:34.713Z,5.20
2018-08-07T03:43:29.710Z,5.70
2018-08-07T03:44:28.094Z,5.70
2018-08-07T03:46:50.540Z,5.00
2018-08-07T18:04:23.917Z,16.10
2018-08-07T18:05:23.910Z,18.50
2018-08-07T18:07:16.991Z,20.30
2018-08-07T18:08:16.824Z,15.80
2018-08-07T18:10:10.260Z,18.30
2018-08-07T18:11:10.202Z,16.10
2018-08-07T18:13:04.465Z,13.70
2018-08-07T18:14:04.457Z,11.90
2018-08-07T18:15:57.917Z,13.90
2018-08-07T18:16:57.844Z,19.40
2018-08-07T18:18:51.817Z,16.90
2018-08-07T18:19:51.235Z,19.40
2018-08-07T18:21:44.898Z,11.10
2018-08-07T18:22:44.606Z,13.60
2018-08-07T18:24:37.762Z,14.90
2018-08-07T18:25:37.584Z,10.80
2018-08-07T18:27:30.717Z,8.70
2018-08-07T18:28:30.473Z,9.80
2018-08-07T18:30:25.234Z,7.10
2018-08-07T18:31:24.141Z,7.90
2018-08-07T18:33:17.615Z,9.00
2018-08-07T18:34:17.265Z,6.30
2018-08-07T18:36:10.212Z,12.20
2018-08-07T18:37:10.178Z,11.60
2018-08-07T18:39:03.336Z,8.20
2018-08-07T18:40:03.090Z,11.30
2018-08-07T18:41:56.804Z,6.60
2018-08-07T18:42:55.971Z,7.40
2018-08-07T18:45:41.702Z,7.20
2018-08-07T18:46:41.250Z,9.40
2018-08-07T18:48:35.670Z,7.50
2018-08-07T18:49:35.635Z,7.80
2018-08-07T18:51:29.082Z,9.20
2018-08-07T18:52:29.056Z,13.20
2018-08-07T18:54:23.577Z,7.10
2018-08-07T18:55:22.476Z,8.60
2018-08-07T18:57:15.934Z,8.70
2018-08-07T18:58:15.910Z,10.70
2018-08-07T19:00:09.335Z,8.00
2018-08-07T19:01:09.298Z,8.20
2018-08-07T19:03:04.236Z,8.30
2018-08-07T19:04:02.707Z,9.70
2018-08-07T19:05:56.105Z,10.40
2018-08-07T19:06:56.112Z,9.90
2018-08-07T19:08:49.574Z,20.10
2018-08-07T19:09:49.506Z,10.70
2018-08-07T19:11:43.483Z,8.70
2018-08-07T19:12:42.938Z,13.90
2018-08-07T19:14:36.311Z,6.10
2018-08-07T19:15:36.300Z,9.50
2018-08-07T19:17:29.419Z,7.20
2018-08-07T19:18:29.255Z,6.60
2018-08-07T19:20:22.435Z,13.00
2018-08-07T19:21:22.118Z,12.50
2018-08-07T19:23:15.785Z,12.20
2018-08-07T19:24:15.534Z,12.40
2018-08-07T19:26:09.163Z,11.30
2018-08-07T19:27:08.891Z,11.90
2018-08-07T19:29:02.313Z,10.80
2018-08-07T19:30:02.284Z,7.70
2018-08-07T19:31:55.438Z,9.00
2018-08-07T19:32:55.175Z,10.30
2018-08-07T19:34:48.583Z,12.80
2018-08-07T19:35:48.572Z,10.20
2018-08-07T19:37:42.329Z,10.70
2018-08-07T19:38:41.986Z,8.90
2018-08-07T19:40:35.249Z,12.70
2018-08-07T19:41:34.848Z,19.60
2018-08-07T19:43:28.541Z,11.70
2018-08-07T19:44:28.250Z,12.40
2018-08-07T19:46:21.254Z,11.40
2018-08-07T19:47:21.154Z,14.50
2018-08-07T19:49:14.156Z,11.70
2018-08-07T19:50:14.044Z,11.00
2018-08-07T19:52:07.337Z,9.20
2018-08-07T19:53:07.946Z,7.30
2018-08-07T19:55:00.662Z,11.80
2018-08-07T19:56:00.770Z,10.70
2018-08-07T19:57:55.233Z,10.20
2018-08-07T19:58:55.109Z,7.60
2018-08-07T20:00:48.542Z,11.30
2018-08-07T20:01:48.401Z,8.90
2018-08-07T20:03:41.947Z,9.60
2018-08-07T20:04:41.522Z,15.80
2018-08-07T20:06:36.260Z,7.90
2018-08-07T20:07:34.405Z,7.60
2018-08-07T20:09:28.152Z,10.00
2018-08-07T20:10:27.935Z,11.20
2018-08-07T20:12:20.988Z,12.70
2018-08-07T20:13:20.693Z,12.00
2018-08-07T20:15:14.281Z,10.20
2018-08-07T20:16:14.047Z,14.40
2018-08-07T20:18:07.553Z,10.50
2018-08-07T20:19:07.448Z,10.90
2018-08-07T20:21:00.414Z,12.00
2018-08-07T20:22:00.335Z,10.50
2018-08-07T20:23:53.835Z,11.60
2018-08-07T20:24:53.740Z,9.80
2018-08-07T20:26:47.145Z,12.50
2018-08-07T20:27:47.106Z,11.20
2018-08-07T20:29:40.520Z,10.60
2018-08-07T20:30:40.550Z,11.20
2018-08-07T20:32:33.406Z,10.90
2018-08-07T20:33:33.398Z,9.90
2018-08-07T20:35:27.584Z,13.30
2018-08-07T20:36:26.832Z,11.30
2018-08-07T20:38:20.458Z,10.20
2018-08-07T20:39:20.177Z,13.10
2018-08-07T20:41:13.397Z,10.00
2018-08-07T20:42:13.355Z,12.10
2018-08-07T20:44:07.372Z,10.70
2018-08-07T20:45:07.328Z,9.50
2018-08-07T20:47:03.293Z,10.60
2018-08-07T20:48:03.285Z,10.10
2018-08-07T20:49:57.656Z,10.60
2018-08-07T20:50:57.642Z,12.10
2018-08-07T20:52:50.978Z,10.00
2018-08-07T20:53:51.304Z,10.40
2018-08-07T20:55:43.997Z,9.20
2018-08-07T20:56:44.462Z,9.70
2018-08-07T20:58:37.281Z,7.80
2018-08-07T20:59:37.001Z,9.80
2018-08-07T21:01:30.748Z,9.60
2018-08-07T21:02:30.400Z,12.30
2018-08-07T21:04:23.985Z,10.00
2018-08-07T21:05:23.776Z,10.70
2018-08-07T21:07:17.004Z,8.80
2018-08-07T21:08:16.676Z,9.90
2018-08-07T21:10:10.485Z,10.20
2018-08-07T21:11:10.359Z,9.70
2018-08-07T21:13:03.765Z,9.10
2018-08-07T21:14:03.443Z,10.20
2018-08-07T21:15:56.953Z,9.70
2018-08-07T21:16:57.294Z,10.10
2018-08-07T21:18:50.616Z,10.40
2018-08-07T21:19:50.596Z,7.60
2018-08-07T21:21:44.005Z,9.70
2018-08-07T21:22:44.034Z,11.50
2018-08-07T21:24:37.314Z,9.70
2018-08-07T21:25:36.977Z,9.90
2018-08-07T21:27:30.888Z,9.30
2018-08-07T21:28:32.267Z,8.10
2018-08-07T21:30:23.776Z,7.40
2018-08-07T21:31:23.744Z,7.80
2018-08-07T21:33:17.450Z,7.20
2018-08-07T21:34:17.139Z,9.10
2018-08-07T21:36:10.861Z,7.20
2018-08-07T21:37:10.871Z,7.20
2018-08-07T21:39:04.239Z,6.50
2018-08-07T21:40:03.900Z,7.40
2018-08-07T21:41:56.821Z,8.70
2018-08-07T21:42:56.827Z,6.70
2018-08-07T21:44:51.037Z,11.90
2018-08-07T21:45:50.249Z,7.90
2018-08-07T21:47:43.323Z,8.70
2018-08-07T21:48:43.071Z,11.50
2018-08-07T21:50:36.287Z,9.80
2018-08-07T21:51:36.562Z,9.40
2018-08-07T21:53:30.183Z,7.30
2018-08-07T21:54:29.355Z,8.50
2018-08-07T21:56:23.007Z,8.90
2018-08-07T21:57:22.743Z,12.00
2018-08-07T21:59:15.769Z,8.20
2018-08-07T22:00:15.771Z,6.50
2018-08-07T22:02:09.348Z,11.50
2018-08-07T22:03:09.165Z,9.50
2018-08-07T22:05:02.829Z,11.00
2018-08-07T22:06:02.821Z,11.90
2018-08-07T22:07:55.947Z,12.70
2018-08-07T22:08:56.203Z,9.70
2018-08-07T22:10:49.614Z,10.80
2018-08-07T22:11:49.579Z,13.90
2018-08-07T22:13:42.740Z,10.70
2018-08-07T22:14:42.692Z,10.60
2018-08-07T22:16:35.854Z,10.60
2018-08-07T22:17:35.589Z,13.10
2018-08-07T22:19:28.848Z,10.60
2018-08-07T22:20:29.041Z,9.80
2018-08-07T22:22:21.683Z,10.20
2018-08-07T22:23:21.387Z,11.90
2018-08-07T22:25:14.789Z,13.70
2018-08-07T22:26:15.038Z,9.60
2018-08-07T22:28:07.955Z,10.70
2018-08-07T22:29:07.971Z,11.30
2018-08-07T22:31:00.956Z,17.70
2018-08-07T22:32:00.605Z,14.20
2018-08-07T22:33:54.438Z,13.30
2018-08-07T22:34:54.000Z,11.90
2018-08-07T22:36:47.662Z,11.10
2018-08-07T22:37:47.711Z,9.00
2018-08-07T22:39:41.134Z,10.00
2018-08-07T22:40:40.736Z,12.50
2018-08-07T22:42:36.918Z,8.30
2018-08-07T22:43:35.698Z,8.70
2018-08-07T22:45:28.861Z,11.30
2018-08-07T22:46:28.525Z,8.60
2018-08-07T22:48:22.248Z,11.30
2018-08-07T22:49:22.232Z,11.10
2018-08-07T22:51:16.261Z,6.50
2018-08-07T22:52:15.603Z,10.50
2018-08-07T22:54:09.194Z,10.20
2018-08-07T22:55:09.097Z,7.60
2018-08-07T22:57:02.484Z,10.60
2018-08-07T22:58:01.927Z,10.70
2018-08-07T22:59:55.983Z,9.80
2018-08-07T23:00:55.318Z,11.10
2018-08-07T23:02:48.815Z,12.40
2018-08-07T23:03:48.344Z,11.90
2018-08-07T23:05:43.153Z,10.60
2018-08-07T23:06:42.042Z,8.30
2018-08-07T23:08:36.020Z,9.60
2018-08-07T23:09:35.675Z,10.50
2018-08-07T23:11:29.645Z,11.50
2018-08-07T23:12:29.087Z,8.10
2018-08-07T23:14:22.495Z,13.80
2018-08-07T23:15:22.447Z,13.40
2018-08-07T23:17:16.199Z,8.20
2018-08-07T23:18:15.862Z,7.60
2018-08-07T23:20:09.263Z,13.10
2018-08-07T23:21:09.236Z,10.90
2018-08-07T23:23:02.951Z,14.70
2018-08-07T23:24:03.174Z,12.50
2018-08-07T23:25:56.930Z,11.20
2018-08-07T23:26:56.018Z,8.40
2018-08-07T23:28:49.805Z,13.30
2018-08-07T23:29:49.403Z,7.20
2018-08-07T23:31:43.151Z,12.80
2018-08-07T23:32:42.788Z,8.80
2018-08-07T23:34:36.579Z,9.30
2018-08-07T23:35:36.174Z,11.40
2018-08-07T23:37:30.884Z,10.90
2018-08-07T23:38:29.550Z,9.60
2018-08-07T23:40:22.506Z,11.00
2018-08-07T23:41:23.267Z,8.30
2018-08-07T23:43:16.248Z,10.00
2018-08-07T23:44:15.856Z,11.10
2018-08-07T23:46:09.520Z,8.20
2018-08-07T23:47:09.775Z,12.60
2018-08-07T23:49:02.434Z,11.50
2018-08-07T23:50:02.988Z,14.50
2018-08-07T23:51:55.824Z,12.20
2018-08-07T23:52:55.516Z,8.00
2018-08-07T23:54:48.791Z,11.00
2018-08-07T23:55:48.409Z,16.00
2018-08-07T23:57:41.830Z,9.30
2018-08-07T23:58:42.184Z,11.50
